Time;durP1;ratioP1;P1;durP2;ratioP2;P2;SDS_P1;SDS_P2;PMS_P1;PMS_P2;Temp;Humidity;BMP_temperature;BMP_pressure;BME280_temperature;BME280_humidity;BME280_pressure;Samples;Min_cycle;Max_cycle;Signal;HPM_P1;HPM_P2
2022/01/13 00:00:50;;;;;;;22.27;9.27;;;;;;;-1.84;100.00;100981.06;4976078;28;20202;-86
2022/01/13 00:03:15;;;;;;;22.20;9.23;;;;;;;-3.73;100.00;100661.22;4976147;28;20753;-86
2022/01/13 00:05:40;;;;;;;22.23;8.37;;;;;;;-2.61;100.00;100855.34;4981199;28;20163;-87
2022/01/13 00:08:06;;;;;;;20.87;8.83;;;;;;;-3.07;100.00;100782.16;4998589;28;20274;-86
2022/01/13 00:10:31;;;;;;;21.27;9.00;;;;;;;-2.93;100.00;100815.09;4972223;28;20683;-85
2022/01/13 00:13:08;;;;;;;19.10;7.80;;;;;;;-3.67;100.00;100691.66;4956507;28;20649;-84
2022/01/13 00:15:47;;;;;;;19.02;8.02;;;;;;;-2.52;100.00;100888.66;4963174;28;20231;-86
2022/01/13 00:18:18;;;;;;;16.30;6.32;;;;;;;-2.26;100.00;100958.69;4971931;28;20676;-85
2022/01/13 00:26:15;;;;;;;23.48;9.55;;;;;;;-3.38;100.00;100786.69;4971824;28;20242;-84
2022/01/13 00:28:44;;;;;;;24.15;9.90;;;;;;;-2.70;100.00;100926.16;4972939;28;20253;-87
2022/01/13 00:31:10;;;;;;;25.95;9.65;;;;;;;-3.11;100.00;100859.31;4972842;28;20671;-85
2022/01/13 00:33:36;;;;;;;20.60;8.60;;;;;;;-2.46;100.00;100991.03;4992122;28;20214;-85
2022/01/13 00:36:02;;;;;;;23.10;9.70;;;;;;;-3.23;100.00;100875.16;4995800;28;20241;-86
2022/01/13 00:38:30;;;;;;;21.43;9.03;;;;;;;-2.47;100.00;100996.69;4992861;28;20410;-86
2022/01/13 00:40:56;;;;;;;16.25;7.45;;;;;;;-4.01;100.00;100752.59;4993979;28;20159;-86
2022/01/13 00:43:22;;;;;;;19.60;8.00;;;;;;;-2.87;100.00;100934.75;4997516;28;20164;-85
2022/01/13 00:45:49;;;;;;;24.53;9.37;;;;;;;-4.05;100.00;100767.78;5009664;28;20152;-85
2022/01/13 00:48:15;;;;;;;22.73;9.32;;;;;;;-2.53;100.00;101037.22;5003166;28;20209;-85
2022/01/13 00:50:40;;;;;;;26.50;10.38;;;;;;;-5.79;100.00;100482.03;4993647;28;20194;-84
2022/01/13 00:53:06;;;;;;;19.40;7.30;;;;;;;-2.82;100.00;100973.34;4995376;28;20195;-86
2022/01/13 00:58:17;;;;;;;21.13;8.77;;;;;;;-3.09;100.00;100932.19;5010021;28;20179;-86
2022/01/13 01:00:43;;;;;;;15.20;6.40;;;;;;;-2.84;100.00;100973.19;5016652;28;20214;-86
2022/01/13 01:03:09;;;;;;;22.17;8.73;;;;;;;-2.66;100.00;100986.88;5006247;28;20326;-85
2022/01/13 01:05:35;;;;;;;20.67;9.02;;;;;;;-2.92;100.00;101000.19;5006454;28;20176;-86
2022/01/13 01:08:05;;;;;;;28.95;11.63;;;;;;;-2.88;100.00;100997.41;4976767;28;20692;-85
2022/01/13 01:10:31;;;;;;;24.98;9.65;;;;;;;-4.43;100.00;100723.56;4992085;28;20194;-85
2022/01/13 01:12:56;;;;;;;25.23;11.23;;;;;;;-3.42;100.00;100888.50;4974675;28;20211;-85
2022/01/13 01:15:24;;;;;;;20.90;8.67;;;;;;;-2.91;100.00;100997.03;4974914;28;20199;-85
2022/01/13 01:17:56;;;;;;;25.15;9.55;;;;;;;-4.93;100.00;100676.97;4992204;28;20175;-86
2022/01/13 01:20:28;;;;;;;24.23;10.35;;;;;;;-6.60;100.00;100399.69;4995618;28;20632;-86
2022/01/13 01:23:04;;;;;;;26.60;10.68;;;;;;;-5.36;100.00;100590.22;4994606;28;20250;-86
2022/01/13 01:27:57;;;;;;;28.37;11.33;;;;;;;-3.12;100.00;101005.22;4991235;28;20615;-85
2022/01/13 01:30:41;;;;;;;26.67;10.80;;;;;;;-4.40;100.00;100772.47;4991179;28;20639;-85
2022/01/13 01:33:10;;;;;;;31.95;12.48;;;;;;;-3.62;100.00;100905.88;4974456;28;20270;-85
2022/01/13 01:35:37;;;;;;;33.15;13.82;;;;;;;-3.10;100.00;100984.88;4984383;28;20593;-86
2022/01/13 01:38:03;;;;;;;36.15;13.77;;;;;;;-3.25;100.00;100926.09;5013972;28;20168;-85
2022/01/13 01:40:28;;;;;;;34.93;14.07;;;;;;;-3.50;100.00;100899.06;4994525;28;20208;-85
2022/01/13 01:42:54;;;;;;;34.83;13.60;;;;;;;-5.58;100.00;100501.97;4995537;28;20218;-84
2022/01/13 01:45:20;;;;;;;30.37;12.67;;;;;;;-5.29;100.00;100539.16;4996562;28;20601;-86
2022/01/13 01:47:49;;;;;;;35.57;15.00;;;;;;;-2.61;100.00;101028.00;4995627;28;20167;-86
2022/01/13 01:50:21;;;;;;;46.00;17.27;;;;;;;-4.52;100.00;100687.84;4996468;28;20159;-85
2022/01/13 01:52:49;;;;;;;33.72;13.25;;;;;;;-2.70;100.00;101024.41;4996888;28;20227;-85
2022/01/13 01:55:16;;;;;;;38.35;16.77;;;;;;;-3.04;100.00;100948.47;4995193;28;20175;-85
2022/01/13 01:57:45;;;;;;;36.35;15.95;;;;;;;-2.58;100.00;101018.44;4996277;28;20178;-85
2022/01/13 02:00:15;;;;;;;38.28;15.50;;;;;;;-2.55;100.00;101021.25;4996248;28;20172;-86
2022/01/13 02:02:43;;;;;;;37.25;14.98;;;;;;;-5.68;100.00;100490.75;4995025;28;20303;-85
2022/01/13 02:05:08;;;;;;;39.55;17.67;;;;;;;-3.36;100.00;100880.91;4996335;28;20171;-85
2022/01/13 02:07:34;;;;;;;43.00;17.37;;;;;;;-5.88;100.00;100444.00;4996376;28;20167;-86
2022/01/13 02:09:59;;;;;;;47.77;18.97;;;;;;;-5.08;100.00;100577.22;4999136;28;20167;-85
2022/01/13 02:12:38;;;;;;;50.47;19.73;;;;;;;-5.57;100.00;100518.50;4997120;28;20200;-85
2022/01/13 02:17:37;;;;;;;36.03;15.73;;;;;;;-4.64;100.00;100683.88;4996021;28;20269;-86
2022/01/13 02:20:04;;;;;;;33.92;13.63;;;;;;;-5.48;100.00;100546.78;4999621;28;20234;-85
2022/01/13 02:22:30;;;;;;;30.08;13.27;;;;;;;-3.15;100.00;100936.38;4998536;28;20710;-85
2022/01/13 02:24:55;;;;;;;33.00;14.17;;;;;;;-4.31;100.00;100746.41;4997192;28;20175;-85
2022/01/13 02:27:22;;;;;;;35.43;14.17;;;;;;;-4.47;100.00;100716.47;4996669;28;20167;-85
2022/01/13 02:29:47;;;;;;;36.92;14.98;;;;;;;-2.80;100.00;101042.19;4995922;28;20643;-84
2022/01/13 02:32:13;;;;;;;38.83;15.93;;;;;;;-2.79;100.00;101018.31;4996263;28;20191;-84
2022/01/13 02:34:39;;;;;;;37.43;16.27;;;;;;;-6.30;100.00;100451.88;4997597;28;20196;-84
2022/01/13 02:37:04;;;;;;;45.13;17.07;;;;;;;-5.71;100.00;100495.34;4996999;28;20178;-85
2022/01/13 02:39:30;;;;;;;36.23;15.50;;;;;;;-2.84;100.00;101035.13;4996775;28;20246;-86
2022/01/13 02:41:57;;;;;;;32.58;14.73;;;;;;;-4.57;100.00;100716.06;4995880;28;20243;-85
2022/01/13 02:44:24;;;;;;;33.47;13.98;;;;;;;-5.18;100.00;100618.75;4995977;28;20167;-86
2022/01/13 02:49:20;;;;;;;34.00;15.00;;;;;;;-2.92;100.00;100992.78;4998291;28;20683;-85
2022/01/13 02:51:50;;;;;;;39.80;15.73;;;;;;;-4.24;100.00;100788.50;4996790;28;20164;-85
2022/01/13 02:54:16;;;;;;;37.92;15.98;;;;;;;-5.79;100.00;100495.94;4995486;28;20176;-85
2022/01/13 02:56:43;;;;;;;36.27;14.67;;;;;;;-5.52;100.00;100553.63;4995666;28;20182;-85
2022/01/13 02:59:09;;;;;;;35.03;14.18;;;;;;;-3.01;100.00;100998.38;4995329;28;20524;-85
2022/01/13 03:01:34;;;;;;;38.70;15.63;;;;;;;-4.23;100.00;100801.03;4994769;28;20239;-85
2022/01/13 03:04:04;;;;;;;36.90;14.83;;;;;;;-3.22;100.00;100993.31;4993898;28;20231;-85
2022/01/13 03:06:35;;;;;;;33.72;13.57;;;;;;;-3.27;100.00;100990.97;5010597;28;20160;-85
2022/01/13 03:09:04;;;;;;;29.13;12.95;;;;;;;-3.69;100.00;100904.94;5005742;28;20168;-85
2022/01/13 03:11:37;;;;;;;30.27;12.80;;;;;;;-6.13;100.00;100490.94;4996328;28;20227;-85
2022/01/13 03:14:10;;;;;;;29.40;12.00;;;;;;;-3.18;100.00;100999.50;4996192;28;20167;-85
2022/01/13 03:16:36;;;;;;;24.98;11.43;;;;;;;-5.22;100.00;100660.13;4999127;28;20160;-83
2022/01/13 03:19:01;;;;;;;27.37;11.93;;;;;;;-4.68;100.00;100777.19;5017209;28;20160;-85
2022/01/13 03:21:27;;;;;;;26.20;10.53;;;;;;;-5.12;100.00;100734.63;5019350;28;20489;-84
2022/01/13 03:23:52;;;;;;;27.47;11.00;;;;;;;-4.64;100.00;100776.88;5005496;28;20239;-85
2022/01/13 03:26:20;;;;;;;27.40;11.87;;;;;;;-3.39;100.00;100982.03;5005957;28;20600;-85
2022/01/13 03:29:04;;;;;;;30.15;13.80;;;;;;;-6.51;100.00;100429.50;4995919;28;20163;-83
2022/01/13 03:31:29;;;;;;;54.03;21.35;;;;;;;-6.38;100.00;100451.59;4996790;28;20175;-85
2022/01/13 03:33:55;;;;;;;66.67;26.63;;;;;;;-4.99;100.00;100658.91;4997623;28;20596;-85
2022/01/13 03:36:20;;;;;;;63.47;25.97;;;;;;;-3.96;100.00;100839.72;4996466;28;20163;-84
2022/01/13 03:38:46;;;;;;;59.00;22.87;;;;;;;-4.81;100.00;100730.34;4999547;28;20202;-84
2022/01/13 03:41:13;;;;;;;100.03;32.57;;;;;;;-5.64;100.00;100559.50;5000763;28;20171;-85
2022/01/13 03:43:38;;;;;;;74.53;26.83;;;;;;;-3.87;100.00;100896.13;4993607;28;20167;-85
2022/01/13 03:46:05;;;;;;;288.87;64.10;;;;;;;-5.38;100.00;100647.47;4995210;28;20250;-84
2022/01/13 03:48:31;;;;;;;77.07;23.38;;;;;;;-5.24;100.00;100636.84;4993510;28;20171;-84
2022/01/13 03:50:56;;;;;;;44.73;17.27;;;;;;;-3.94;100.00;100858.09;4995341;28;20190;-84
2022/01/13 03:53:27;;;;;;;47.47;18.27;;;;;;;-3.47;100.00;100983.59;4994930;28;20183;-85
2022/01/13 03:56:14;;;;;;;48.83;18.77;;;;;;;-3.37;100.00;100981.53;4993548;28;20167;-84
2022/01/13 03:59:34;;;;;;;70.22;26.45;;;;;;;-3.41;100.00;100984.34;4995580;28;20168;-84
2022/01/13 04:02:10;;;;;;;87.10;31.40;;;;;;;-3.42;100.00;100980.06;4934613;29;20611;-85
2022/01/13 04:04:41;;;;;;;106.47;39.65;;;;;;;-4.47;100.00;100802.97;4932938;29;20224;-86
2022/01/13 04:07:15;;;;;;;104.93;40.80;;;;;;;-4.77;100.00;100739.88;4918064;29;20280;-85
2022/01/13 04:09:40;;;;;;;105.47;41.50;;;;;;;-3.33;100.00;100998.53;4934048;29;20180;-86
2022/01/13 04:12:10;;;;;;;88.07;34.10;;;;;;;-3.54;100.00;100956.28;4919348;29;20216;-85
2022/01/13 04:14:46;;;;;;;73.20;29.25;;;;;;;-3.30;100.00;101003.88;4927821;29;20208;-85
2022/01/13 04:17:17;;;;;;;81.05;30.73;;;;;;;-4.93;100.00;100721.41;4923433;29;20636;-85
2022/01/13 04:19:44;;;;;;;80.43;30.95;;;;;;;-5.74;100.00;100593.56;4933371;29;20178;-84
2022/01/13 04:22:10;;;;;;;83.70;30.33;;;;;;;-5.24;100.00;100699.41;4934379;29;20277;-84
2022/01/13 04:24:38;;;;;;;69.68;27.08;;;;;;;-5.58;100.00;100625.28;4934690;29;20208;-85
2022/01/13 04:27:04;;;;;;;53.03;21.83;;;;;;;-6.43;100.00;100487.09;4920139;29;20177;-85
2022/01/13 04:29:36;;;;;;;42.17;17.88;;;;;;;-3.46;100.00;101043.88;4918665;29;20610;-85
2022/01/13 04:32:03;;;;;;;43.60;18.67;;;;;;;-3.48;100.00;101070.00;4935321;29;20670;-84
2022/01/13 04:34:29;;;;;;;42.67;16.25;;;;;;;-6.52;100.00;100549.94;4918527;29;20633;-85
2022/01/13 04:36:56;;;;;;;42.43;18.33;;;;;;;-6.24;100.00;100570.00;5010529;28;20188;-85
2022/01/13 04:39:21;;;;;;;81.43;33.10;;;;;;;-3.55;100.00;101032.84;4993004;28;20262;-85
2022/01/13 04:41:48;;;;;;;115.33;46.10;;;;;;;-3.96;100.00;100959.31;4993951;28;20206;-85
2022/01/13 04:44:18;;;;;;;103.40;43.08;;;;;;;-3.53;100.00;101034.78;4993422;28;20155;-85
2022/01/13 04:46:45;;;;;;;97.28;37.90;;;;;;;-6.14;100.00;100577.84;4994122;28;20569;-85
2022/01/13 04:49:11;;;;;;;107.85;40.03;;;;;;;-5.59;100.00;100672.81;4994393;28;20166;-85
2022/01/13 04:51:38;;;;;;;93.97;37.30;;;;;;;-3.62;100.00;101023.75;4994535;28;20182;-85
2022/01/13 04:54:05;;;;;;;93.47;36.47;;;;;;;-4.11;100.00;100940.09;4993173;28;20529;-86
2022/01/13 04:59:17;;;;;;;137.40;47.53;;;;;;;-4.23;100.00;100934.50;4932843;29;20237;-85
2022/01/13 05:01:42;;;;;;;135.90;49.93;;;;;;;-3.98;100.00;100997.78;4933195;29;20660;-85
2022/01/13 05:04:08;;;;;;;89.20;33.37;;;;;;;-4.57;100.00;100897.97;4933618;29;20217;-85
2022/01/13 05:06:34;;;;;;;63.75;26.70;;;;;;;-6.13;100.00;100627.34;4933521;29;20204;-84
2022/01/13 05:09:00;;;;;;;65.17;25.70;;;;;;;-5.17;100.00;100789.94;4934033;29;20173;-85
2022/01/13 05:11:26;;;;;;;109.23;38.17;;;;;;;-6.30;100.00;100588.91;4934106;29;20197;-85
2022/01/13 05:13:51;;;;;;;114.68;40.33;;;;;;;-4.10;100.00;100975.59;4935799;29;20743;-84
2022/01/13 05:16:24;;;;;;;87.17;32.40;;;;;;;-5.10;100.00;100812.19;4942034;29;20193;-83
2022/01/13 05:19:14;;;;;;;55.67;21.20;;;;;;;-5.82;100.00;100708.47;4944263;29;20166;-84
2022/01/13 05:24:10;;;;;;;50.97;21.17;;;;;;;-3.86;100.00;101060.28;4938287;29;20193;-85
2022/01/13 05:26:35;;;;;;;50.53;21.00;;;;;;;-3.81;100.00;101067.59;4938408;29;20698;-85
2022/01/13 05:29:00;;;;;;;113.17;42.83;;;;;;;-5.14;100.00;100817.47;4940607;29;20559;-84
2022/01/13 05:31:26;;;;;;;168.70;55.43;;;;;;;-4.67;100.00;100886.06;4937156;29;20718;-85
2022/01/13 05:33:51;;;;;;;356.20;131.67;;;;;;;-6.32;100.00;100615.84;4926045;29;20214;-86
2022/01/13 05:36:17;;;;;;;348.10;126.67;;;;;;;-3.72;100.00;101087.63;4946474;28;20220;-84
2022/01/13 05:38:43;;;;;;;293.57;105.83;;;;;;;-5.11;100.00;100827.72;4994010;28;20169;-84
2022/01/13 05:41:09;;;;;;;174.70;59.87;;;;;;;-5.60;100.00;100737.63;5020170;28;20187;-84
2022/01/13 05:43:34;;;;;;;178.40;58.58;;;;;;;-6.38;100.00;100604.31;5015087;28;20194;-85
2022/01/13 05:46:00;;;;;;;131.07;45.50;;;;;;;-3.89;100.00;101045.94;5002214;28;20673;-85
2022/01/13 05:48:25;;;;;;;90.83;35.87;;;;;;;-6.94;100.00;100506.84;4996790;28;20187;-86
2022/01/13 05:50:51;;;;;;;88.47;36.83;;;;;;;-4.97;100.00;100879.75;4993964;28;20171;-86
2022/01/13 05:53:16;;;;;;;86.67;34.63;;;;;;;-3.80;100.00;101088.25;4977957;28;20192;-86
2022/01/13 05:55:42;;;;;;;145.03;54.03;;;;;;;-4.85;100.00;100921.66;5007665;28;20780;-85
2022/01/13 05:58:07;;;;;;;191.63;62.63;;;;;;;-4.67;100.00;100933.00;5019385;28;20194;-85
2022/01/13 06:00:33;;;;;;;152.90;49.53;;;;;;;-4.01;100.00;101083.09;5016691;28;20186;-85
2022/01/13 06:02:58;;;;;;;161.63;55.20;;;;;;;-6.34;100.00;100680.34;5016180;28;20253;-85
2022/01/13 06:05:25;;;;;;;103.40;38.77;;;;;;;-4.06;100.00;101096.44;5019766;28;20274;-85
2022/01/13 06:07:51;;;;;;;105.15;40.05;;;;;;;-4.03;100.00;101092.78;5034164;28;20175;-84
2022/01/13 06:10:20;;;;;;;105.27;39.60;;;;;;;-5.75;100.00;100802.25;5016000;28;20175;-84
2022/01/13 06:12:50;;;;;;;111.47;41.53;;;;;;;-4.25;100.00;101105.56;5015719;28;20379;-85
2022/01/13 06:15:19;;;;;;;60.75;22.55;;;;;;;-5.13;100.00;100946.00;5018751;28;20193;-85
2022/01/13 06:17:48;;;;;;;82.95;27.38;;;;;;;-4.46;100.00;101086.44;5020050;28;20169;-84
2022/01/13 06:20:15;;;;;;;87.85;30.30;;;;;;;-4.32;100.00;101110.44;5019722;28;21000;-85
2022/01/13 06:22:42;;;;;;;75.25;25.42;;;;;;;-4.15;100.00;101102.72;5019037;28;20285;-86
2022/01/13 06:25:09;;;;;;;62.17;22.33;;;;;;;-4.84;100.00;101018.88;5017646;28;20186;-85
2022/01/13 06:27:35;;;;;;;54.10;20.80;;;;;;;-4.91;100.00;100954.56;5013685;28;20648;-86
2022/01/13 06:30:00;;;;;;;76.13;27.37;;;;;;;-6.50;100.00;100701.22;5002396;28;20206;-85
2022/01/13 06:32:26;;;;;;;33.77;11.33;;;;;;;-5.57;100.00;100856.41;4987153;28;20567;-84
2022/01/13 06:34:52;;;;;;;29.50;10.57;;;;;;;-5.46;100.00;100892.31;4995918;28;20182;-84
2022/01/13 06:37:19;;;;;;;30.00;11.57;;;;;;;-4.83;100.00;100959.78;4995526;28;20175;-85
2022/01/13 06:39:45;;;;;;;35.90;13.52;;;;;;;-5.23;100.00;100849.28;4995853;28;20628;-84
2022/01/13 06:42:11;;;;;;;51.17;19.25;;;;;;;-3.38;100.00;101128.28;4988376;28;20701;-85
2022/01/13 06:44:37;;;;;;;62.60;24.63;;;;;;;-3.31;100.00;101128.34;4994732;28;21020;-83
2022/01/13 06:47:03;;;;;;;48.70;19.73;;;;;;;-3.53;100.00;101042.22;5011908;28;20316;-85
2022/01/13 06:49:28;;;;;;;44.07;16.50;;;;;;;-3.34;100.00;101115.59;5015082;28;20167;-85
2022/01/13 06:51:54;;;;;;;48.47;21.03;;;;;;;-4.80;100.00;100788.88;5015271;28;20167;-85
2022/01/13 06:54:19;;;;;;;66.90;27.40;;;;;;;-5.34;100.00;100689.09;4996433;28;20175;-84
2022/01/13 06:56:45;;;;;;;52.40;22.43;;;;;;;-4.38;100.00;100848.59;4999032;28;20156;-85
2022/01/13 06:59:12;;;;;;;53.97;22.70;;;;;;;-5.44;100.00;100604.78;4996433;28;20160;-84
2022/01/13 07:01:41;;;;;;;52.88;21.75;;;;;;;-2.36;100.00;101131.84;4996692;28;20195;-83
2022/01/13 07:04:09;;;;;;;64.28;28.80;;;;;;;-2.70;100.00;101041.75;5010890;28;20731;-85
2022/01/13 07:06:36;;;;;;;64.13;24.30;;;;;;;-3.55;100.00;100943.75;5016425;28;20171;-84
2022/01/13 07:09:06;;;;;;;42.97;16.60;;;;;;;-2.39;100.00;101138.97;5015858;28;20167;-84
2022/01/13 07:11:31;;;;;;;36.70;13.32;;;;;;;-4.48;100.00;100769.09;5015841;28;20864;-83
2022/01/13 07:13:57;;;;;;;59.33;25.63;;;;;;;-3.90;100.00;100798.44;5004393;28;20222;-84
2022/01/13 07:16:22;;;;;;;51.80;21.80;;;;;;;0.64;100.00;101070.66;4996190;28;20635;-83
2022/01/13 07:18:48;;;;;;;50.93;21.77;;;;;;;3.62;100.00;101149.38;4995628;28;20851;-85
2022/01/13 07:21:16;;;;;;;61.10;27.17;;;;;;;4.57;94.58;101070.94;4996004;28;20386;-85
2022/01/13 07:23:42;;;;;;;131.70;43.23;;;;;;;3.14;92.65;100895.19;5006365;28;20560;-87
2022/01/13 07:26:07;;;;;;;105.30;36.53;;;;;;;0.83;95.35;100745.41;5016058;28;20413;-85
2022/01/13 07:28:32;;;;;;;104.50;37.40;;;;;;;-0.50;100.00;100783.47;5003310;28;20253;-85
2022/01/13 07:30:58;;;;;;;119.13;40.30;;;;;;;0.42;100.00;101007.63;4996074;28;20171;-85
2022/01/13 07:33:24;;;;;;;71.67;27.23;;;;;;;-0.41;100.00;100925.38;5005714;28;20241;-85
2022/01/13 07:35:50;;;;;;;65.03;24.60;;;;;;;0.29;100.00;101183.84;5005742;28;20242;-85
2022/01/13 07:38:17;;;;;;;58.40;24.13;;;;;;;-2.45;100.00;100758.88;5015355;28;20408;-85
2022/01/13 07:40:43;;;;;;;52.83;21.63;;;;;;;-1.82;100.00;100909.28;4995834;28;20479;-86
2022/01/13 07:43:08;;;;;;;52.80;22.93;;;;;;;-1.66;100.00;100915.31;4997675;28;20262;-87
2022/01/13 07:45:34;;;;;;;44.43;19.53;;;;;;;-1.33;100.00;100945.59;5007586;28;20191;-85
2022/01/13 07:47:59;;;;;;;47.27;20.57;;;;;;;-0.87;100.00;101063.53;5000079;28;20692;-85
2022/01/13 07:50:25;;;;;;;58.43;24.37;;;;;;;-0.27;100.00;101174.06;4999892;28;20194;-84
2022/01/13 07:52:50;;;;;;;51.33;23.50;;;;;;;-2.49;100.00;100803.84;4996631;28;20195;-86
2022/01/13 07:55:16;;;;;;;56.53;24.97;;;;;;;-2.24;100.00;100751.44;4996000;28;20175;-85
2022/01/13 07:57:42;;;;;;;84.97;35.00;;;;;;;0.68;100.00;101206.44;4995859;28;20290;-89
2022/01/13 08:00:10;;;;;;;113.33;42.30;;;;;;;0.18;100.00;101057.28;5012293;28;20163;-85
2022/01/13 08:02:36;;;;;;;88.10;37.37;;;;;;;-1.31;100.00;100790.16;5017098;28;20155;-87
2022/01/13 08:05:02;;;;;;;37.77;16.37;;;;;;;-1.03;100.00;100878.59;5002569;28;20464;-86
2022/01/13 08:07:27;;;;;;;69.23;31.03;;;;;;;0.47;100.00;101058.84;4994888;28;20178;-87
2022/01/13 08:09:53;;;;;;;56.97;28.40;;;;;;;1.03;100.00;101156.34;4997057;28;20181;-87
2022/01/13 08:12:18;;;;;;;51.60;21.17;;;;;;;-1.46;100.00;100699.06;5007851;28;20191;-88
2022/01/13 08:14:44;;;;;;;51.53;22.20;;;;;;;-0.14;100.00;100928.41;5010176;28;20202;-85
2022/01/13 08:17:18;;;;;;;29.47;12.27;;;;;;;0.70;99.96;101190.03;5015997;28;20622;-85
2022/01/13 08:19:48;;;;;;;26.73;12.33;;;;;;;-1.41;100.00;100871.81;5000991;28;20635;-87
2022/01/13 08:22:14;;;;;;;23.17;11.23;;;;;;;-2.41;99.26;100649.44;4998640;28;20464;-86
2022/01/13 08:24:40;;;;;;;30.47;11.23;;;;;;;-0.21;98.42;101015.50;4997526;28;20779;-87
2022/01/13 08:27:05;;;;;;;16.73;8.23;;;;;;;-0.33;98.20;101024.97;5013477;28;20409;-86
2022/01/13 08:29:31;;;;;;;31.97;14.63;;;;;;;-0.64;99.29;100961.00;4977917;28;20160;-86
2022/01/13 08:31:56;;;;;;;35.10;16.13;;;;;;;1.05;99.22;101124.97;4978093;28;20168;-85
2022/01/13 08:34:22;;;;;;;28.27;13.10;;;;;;;-0.28;97.77;100919.41;4965225;28;20235;-85
2022/01/13 08:36:47;;;;;;;35.23;15.57;;;;;;;1.32;97.55;101172.84;4992414;28;20171;-84
2022/01/13 08:39:13;;;;;;;30.53;13.13;;;;;;;1.13;96.98;101169.09;4997583;28;20171;-86
2022/01/13 08:41:40;;;;;;;39.17;18.50;;;;;;;-0.38;97.16;100792.25;4995426;28;20171;-86
2022/01/13 08:44:06;;;;;;;33.73;14.57;;;;;;;0.61;94.84;101025.47;4981648;28;20327;-87
2022/01/13 08:46:31;;;;;;;26.90;11.57;;;;;;;0.42;96.49;101042.50;4986969;28;20940;-87
2022/01/13 08:48:57;;;;;;;25.53;11.53;;;;;;;-0.47;96.84;100885.78;4999809;28;20314;-87
2022/01/13 08:51:22;;;;;;;23.63;12.13;;;;;;;1.60;98.09;101189.16;4996992;28;20183;-86
2022/01/13 08:53:48;;;;;;;31.00;14.23;;;;;;;0.65;96.65;101015.13;4999028;28;20274;-86
2022/01/13 08:56:14;;;;;;;23.97;11.20;;;;;;;1.42;96.14;101093.28;5013202;28;20261;-87
2022/01/13 08:58:39;;;;;;;27.03;12.13;;;;;;;-0.54;95.43;100841.03;5017260;28;20216;-86
2022/01/13 09:01:07;;;;;;;24.90;11.57;;;;;;;-1.62;96.67;100721.28;5016371;28;20496;-86
2022/01/13 09:03:32;;;;;;;33.00;13.57;;;;;;;1.02;97.34;101194.47;5002985;28;20237;-86
2022/01/13 09:05:57;;;;;;;25.60;11.20;;;;;;;-0.57;96.92;100937.69;5013219;28;20417;-87
2022/01/13 09:08:23;;;;;;;55.03;21.60;;;;;;;-0.58;96.51;100751.91;5017314;28;20224;-86
2022/01/13 09:10:48;;;;;;;80.47;30.63;;;;;;;-0.22;94.72;100700.25;5015944;28;20179;-86
2022/01/13 09:13:16;;;;;;;95.83;39.03;;;;;;;2.86;94.05;101181.72;5016969;28;20210;-87
2022/01/13 09:15:49;;;;;;;27.73;12.10;;;;;;;0.30;93.67;100861.84;5019433;28;20178;-86
2022/01/13 09:18:18;;;;;;;28.13;11.43;;;;;;;1.78;96.41;101168.66;5015864;28;20490;-86
2022/01/13 09:20:45;;;;;;;31.07;14.13;;;;;;;0.66;96.22;100998.56;4997602;28;20821;-87
2022/01/13 09:23:11;;;;;;;37.00;17.60;;;;;;;-0.27;96.76;100771.91;4998126;28;20418;-87
2022/01/13 09:25:37;;;;;;;45.23;19.93;;;;;;;1.85;95.74;101093.69;5014075;28;20961;-87
2022/01/13 09:28:05;;;;;;;29.03;12.73;;;;;;;-0.38;95.33;100741.59;5001273;28;20423;-88
2022/01/13 09:30:34;;;;;;;33.67;13.87;;;;;;;1.63;96.52;101175.41;4993383;28;20219;-87
2022/01/13 09:33:00;;;;;;;30.40;15.87;;;;;;;-0.48;96.41;100733.88;4991453;28;20497;-87
2022/01/13 09:35:26;;;;;;;32.40;13.17;;;;;;;0.20;96.78;100879.03;4974780;28;20458;-87
2022/01/13 09:37:51;;;;;;;31.57;15.20;;;;;;;-0.26;96.43;100870.72;4996367;28;20260;-87
2022/01/13 09:40:17;;;;;;;57.43;25.47;;;;;;;0.78;96.93;100935.06;4998845;28;20215;-87
2022/01/13 09:42:44;;;;;;;34.60;14.43;;;;;;;0.94;96.18;100993.28;4998139;28;20738;-86
2022/01/13 09:45:11;;;;;;;20.60;10.10;;;;;;;1.17;97.07;101036.53;4997724;28;20243;-88
2022/01/13 09:47:38;;;;;;;30.63;13.57;;;;;;;0.43;95.72;100876.50;4998551;28;20425;-88
2022/01/13 09:50:12;;;;;;;29.90;11.47;;;;;;;0.79;95.89;100961.75;4997104;28;20406;-87
2022/01/13 09:52:38;;;;;;;28.47;11.90;;;;;;;1.98;96.04;101169.13;4996327;28;20449;-87
2022/01/13 09:55:06;;;;;;;29.60;13.83;;;;;;;2.39;95.58;101155.97;4997661;28;20418;-87
2022/01/13 09:57:32;;;;;;;27.47;10.87;;;;;;;1.32;94.75;100977.41;4993085;28;20495;-87
2022/01/13 09:59:58;;;;;;;42.50;18.07;;;;;;;3.04;96.28;101144.31;4993344;28;20445;-87
2022/01/13 10:02:25;;;;;;;47.87;20.80;;;;;;;2.56;95.65;101073.59;5000187;28;20155;-88
2022/01/13 10:04:53;;;;;;;35.90;14.43;;;;;;;2.30;93.08;100993.50;4998785;28;20514;-87
2022/01/13 10:07:43;;;;;;;18.07;8.73;;;;;;;2.56;91.98;101128.59;5006884;28;20421;-87
2022/01/13 10:10:14;;;;;;;22.63;9.60;;;;;;;0.52;91.42;100798.63;5016141;28;20430;-86
2022/01/13 10:12:43;;;;;;;27.13;10.87;;;;;;;-0.40;91.34;100664.34;5014376;28;20492;-85
2022/01/13 10:18:00;;;;;;;37.53;15.77;;;;;;;1.38;91.85;100913.16;5018665;28;20445;-86
2022/01/13 10:20:26;;;;;;;28.63;13.83;;;;;;;1.78;91.78;100957.38;5022526;28;20905;-86
2022/01/13 10:22:53;;;;;;;22.33;10.87;;;;;;;1.87;91.25;100981.50;5036959;28;20171;-87
2022/01/13 10:25:32;;;;;;;25.97;11.43;;;;;;;2.29;92.64;101099.16;5035905;28;20436;-85
2022/01/13 10:28:14;;;;;;;22.03;10.40;;;;;;;1.24;92.93;100926.69;5004478;28;20437;-85
2022/01/13 10:30:40;;;;;;;41.57;18.63;;;;;;;1.42;92.02;100811.34;5015482;28;20861;-85
2022/01/13 10:33:17;;;;;;;28.30;12.23;;;;;;;2.88;92.46;101079.34;4995660;28;20458;-86
2022/01/13 10:35:44;;;;;;;46.67;20.40;;;;;;;3.33;92.00;101075.50;4977624;28;20171;-87
2022/01/13 10:38:09;;;;;;;25.83;10.83;;;;;;;2.55;90.29;100993.47;4985257;28;20510;-86
2022/01/13 10:40:40;;;;;;;21.40;10.67;;;;;;;0.88;91.12;100758.34;4994621;28;20446;-86
2022/01/13 10:43:09;;;;;;;20.27;8.40;;;;;;;-0.22;89.25;100521.13;5014522;28;20183;-86
2022/01/13 10:45:48;;;;;;;17.53;9.07;;;;;;;0.00;90.21;100588.16;4994333;28;20451;-86
2022/01/13 10:48:24;;;;;;;22.10;9.37;;;;;;;2.93;90.92;101036.56;4995847;28;20787;-87
2022/01/13 10:51:02;;;;;;;35.90;16.43;;;;;;;2.77;90.60;100968.25;4991500;28;20485;-87
2022/01/13 10:53:34;;;;;;;40.80;18.03;;;;;;;2.32;91.59;100896.22;4976213;28;20455;-84
2022/01/13 10:56:10;;;;;;;28.73;12.40;;;;;;;2.76;89.78;100875.59;4976612;28;20408;-87
2022/01/13 10:58:41;;;;;;;21.47;9.70;;;;;;;2.49;88.03;100960.38;4978567;28;20437;-86
2022/01/13 11:01:10;;;;;;;22.37;9.97;;;;;;;0.14;70.67;100609.50;4996966;28;20883;-87
2022/01/13 11:03:43;;;;;;;18.20;8.60;;;;;;;1.28;69.89;100779.13;4996996;28;20478;-86
2022/01/13 11:06:14;;;;;;;17.70;7.77;;;;;;;2.52;69.72;101030.66;4999780;28;20441;-84
2022/01/13 11:08:44;;;;;;;30.37;14.13;;;;;;;1.89;68.27;100805.25;4998294;28;20442;-87
2022/01/13 11:11:24;;;;;;;33.50;16.27;;;;;;;1.90;70.09;100764.56;5001026;28;20422;-87
2022/01/13 11:13:53;;;;;;;32.90;14.03;;;;;;;1.95;70.20;100796.75;5003575;28;20450;-86
2022/01/13 11:16:22;;;;;;;23.80;10.57;;;;;;;-1.16;69.80;100386.06;4999970;28;20419;-85
2022/01/13 11:18:48;;;;;;;42.87;18.73;;;;;;;1.33;71.42;100713.13;4996748;28;20419;-85
2022/01/13 11:21:14;;;;;;;37.53;17.43;;;;;;;1.99;69.41;100733.00;4997356;28;20421;-85
2022/01/13 11:23:44;;;;;;;32.47;14.80;;;;;;;3.21;69.69;101002.66;4982804;28;20814;-85
2022/01/13 11:26:12;;;;;;;42.83;19.80;;;;;;;3.62;69.86;100994.13;4979073;28;20481;-85
2022/01/13 11:28:39;;;;;;;35.47;16.37;;;;;;;1.92;67.57;100695.72;4994945;28;20460;-85
2022/01/13 11:31:07;;;;;;;25.73;10.83;;;;;;;-0.08;68.05;100438.78;5012793;28;20430;-86
2022/01/13 11:33:32;;;;;;;34.53;14.20;;;;;;;1.01;69.08;100676.59;4976886;28;20451;-86